sensor_id;sensor_type;location;lat;lon;timestamp;pressure;altitude;pressure_sealevel;temperature;humidity
5651;BME280;40241;52.684;9.758;2023-02-11T00:01:31;102823.69;;;8.55;61.26
5651;BME280;40241;52.684;9.758;2023-02-11T00:03:57;102818.19;;;8.55;60.86
5651;BME280;40241;52.684;9.758;2023-02-11T00:06:25;102822.56;;;8.53;61.13
5651;BME280;40241;52.684;9.758;2023-02-11T00:08:50;102835.09;;;8.54;61.07
5651;BME280;40241;52.684;9.758;2023-02-11T00:11:17;102837.06;;;8.53;61.20
5651;BME280;40241;52.684;9.758;2023-02-11T00:13:44;102824.03;;;8.57;61.11
5651;BME280;40241;52.684;9.758;2023-02-11T00:16:12;102829.94;;;8.56;61.29
5651;BME280;40241;52.684;9.758;2023-02-11T00:18:38;102842.09;;;8.55;61.34
5651;BME280;40241;52.684;9.758;2023-02-11T00:21:08;102853.88;;;8.55;61.47
5651;BME280;40241;52.684;9.758;2023-02-11T00:23:34;102853.88;;;8.55;61.38
5651;BME280;40241;52.684;9.758;2023-02-11T00:25:59;102864.13;;;8.51;61.76
5651;BME280;40241;52.684;9.758;2023-02-11T00:28:25;102862.19;;;8.52;61.73
5651;BME280;40241;52.684;9.758;2023-02-11T00:30:57;102875.91;;;8.52;62.10
5651;BME280;40241;52.684;9.758;2023-02-11T00:33:23;102860.19;;;8.52;61.98
5651;BME280;40241;52.684;9.758;2023-02-11T00:35:48;102855.91;;;8.51;61.97
5651;BME280;40241;52.684;9.758;2023-02-11T00:38:14;102857.03;;;8.54;62.04
5651;BME280;40241;52.684;9.758;2023-02-11T00:40:39;102849.56;;;8.54;62.09
5651;BME280;40241;52.684;9.758;2023-02-11T00:43:05;102853.88;;;8.55;62.13
5651;BME280;40241;52.684;9.758;2023-02-11T00:45:30;102845.19;;;8.57;62.05
5651;BME280;40241;52.684;9.758;2023-02-11T00:47:56;102840.16;;;8.55;62.09
5651;BME280;40241;52.684;9.758;2023-02-11T00:50:22;102836.28;;;8.53;62.28
5651;BME280;40241;52.684;9.758;2023-02-11T00:52:47;102822.22;;;8.51;62.48
5651;BME280;40241;52.684;9.758;2023-02-11T00:55:13;102830.88;;;8.49;62.40
5651;BME280;40241;52.684;9.758;2023-02-11T00:57:39;102829.66;;;8.50;62.54
5651;BME280;40241;52.684;9.758;2023-02-11T01:00:05;102827.25;;;8.52;62.49
5651;BME280;40241;52.684;9.758;2023-02-11T01:02:31;102837.41;;;8.55;62.56
5651;BME280;40241;52.684;9.758;2023-02-11T01:04:56;102827.94;;;8.56;62.47
5651;BME280;40241;52.684;9.758;2023-02-11T01:07:24;102821.72;;;8.56;62.44
5651;BME280;40241;52.684;9.758;2023-02-11T01:09:49;102820.94;;;8.55;62.57
5651;BME280;40241;52.684;9.758;2023-02-11T01:12:15;102819.72;;;8.56;62.57
5651;BME280;40241;52.684;9.758;2023-02-11T01:14:40;102797.44;;;8.54;62.83
5651;BME280;40241;52.684;9.758;2023-02-11T01:17:05;102803.78;;;8.51;63.12
5651;BME280;40241;52.684;9.758;2023-02-11T01:19:31;102803.78;;;8.51;62.92
5651;BME280;40241;52.684;9.758;2023-02-11T01:21:56;102788.09;;;8.52;63.07
5651;BME280;40241;52.684;9.758;2023-02-11T01:24:21;102783.03;;;8.50;63.20
5651;BME280;40241;52.684;9.758;2023-02-11T01:26:47;102784.59;;;8.51;63.10
5651;BME280;40241;52.684;9.758;2023-02-11T01:29:12;102788.84;;;8.52;63.19
5651;BME280;40241;52.684;9.758;2023-02-11T01:31:37;102775.13;;;8.52;63.32
5651;BME280;40241;52.684;9.758;2023-02-11T01:34:03;102765.72;;;8.53;63.47
5651;BME280;40241;52.684;9.758;2023-02-11T01:36:28;102764.50;;;8.54;63.29
5651;BME280;40241;52.684;9.758;2023-02-11T01:38:53;102750.38;;;8.56;63.42
5651;BME280;40241;52.684;9.758;2023-02-11T01:41:19;102737.84;;;8.55;63.64
5651;BME280;40241;52.684;9.758;2023-02-11T01:43:47;102737.84;;;8.55;63.40
5651;BME280;40241;52.684;9.758;2023-02-11T01:46:19;102732.72;;;8.57;63.54
5651;BME280;40241;52.684;9.758;2023-02-11T01:48:51;102729.56;;;8.58;63.63
5651;BME280;40241;52.684;9.758;2023-02-11T01:51:21;102724.47;;;8.57;63.91
5651;BME280;40241;52.684;9.758;2023-02-11T01:53:48;102733.47;;;8.57;63.65
5651;BME280;40241;52.684;9.758;2023-02-11T01:56:36;102737.78;;;8.58;63.79
5651;BME280;40241;52.684;9.758;2023-02-11T02:02:12;102738.47;;;8.62;63.60
5651;BME280;40241;52.684;9.758;2023-02-11T02:04:59;102731.44;;;8.61;64.20
5651;BME280;40241;52.684;9.758;2023-02-11T02:07:44;102736.91;;;8.61;64.38
5651;BME280;40241;52.684;9.758;2023-02-11T02:10:18;102743.09;;;8.65;63.79
5651;BME280;40241;52.684;9.758;2023-02-11T02:12:44;102738.38;;;8.66;63.60
5651;BME280;40241;52.684;9.758;2023-02-11T02:15:22;102751.59;;;8.71;64.12
5651;BME280;40241;52.684;9.758;2023-02-11T02:17:56;102737.44;;;8.72;63.79
5651;BME280;40241;52.684;9.758;2023-02-11T02:23:39;102738.13;;;8.76;63.85
5651;BME280;40241;52.684;9.758;2023-02-11T02:28:56;102735.31;;;8.80;63.82
5651;BME280;40241;52.684;9.758;2023-02-11T02:34:05;102719.19;;;8.82;63.62
5651;BME280;40241;52.684;9.758;2023-02-11T02:39:21;102710.84;;;8.85;63.64
5651;BME280;40241;52.684;9.758;2023-02-11T02:41:48;102710.41;;;8.87;63.54
5651;BME280;40241;52.684;9.758;2023-02-11T02:44:14;102712.66;;;8.92;63.52
5651;BME280;40241;52.684;9.758;2023-02-11T02:46:40;102721.22;;;8.94;63.58
5651;BME280;40241;52.684;9.758;2023-02-11T02:49:12;102718.41;;;8.97;63.37
5651;BME280;40241;52.684;9.758;2023-02-11T03:00:11;102688.88;;;9.01;63.32
5651;BME280;40241;52.684;9.758;2023-02-11T03:08:44;102688.69;;;9.09;63.42
5651;BME280;40241;52.684;9.758;2023-02-11T03:11:13;102686.72;;;9.09;63.44
5651;BME280;40241;52.684;9.758;2023-02-11T03:13:41;102687.81;;;9.12;63.46
5651;BME280;40241;52.684;9.758;2023-02-11T03:16:14;102676.84;;;9.12;63.63
5651;BME280;40241;52.684;9.758;2023-02-11T03:18:45;102678.28;;;9.16;63.40
5651;BME280;40241;52.684;9.758;2023-02-11T03:21:13;102666.09;;;9.17;63.34
5651;BME280;40241;52.684;9.758;2023-02-11T03:23:49;102673.47;;;9.20;63.78
5651;BME280;40241;52.684;9.758;2023-02-11T03:26:29;102664.38;;;9.23;63.47
5651;BME280;40241;52.684;9.758;2023-02-11T03:32:09;102672.50;;;9.27;63.45
5651;BME280;40241;52.684;9.758;2023-02-11T03:34:48;102674.47;;;9.26;63.48
5651;BME280;40241;52.684;9.758;2023-02-11T03:37:20;102681.19;;;9.25;63.33
5651;BME280;40241;52.684;9.758;2023-02-11T03:39:54;102674.47;;;9.26;63.61
5651;BME280;40241;52.684;9.758;2023-02-11T03:42:23;102680.31;;;9.28;63.51
5651;BME280;40241;52.684;9.758;2023-02-11T03:45:06;102677.91;;;9.30;63.74
5651;BME280;40241;52.684;9.758;2023-02-11T03:47:36;102683.31;;;9.34;63.39
5651;BME280;40241;52.684;9.758;2023-02-11T03:50:05;102683.31;;;9.34;63.32
5651;BME280;40241;52.684;9.758;2023-02-11T03:52:33;102684.50;;;9.33;63.40
5651;BME280;40241;52.684;9.758;2023-02-11T03:55:02;102687.94;;;9.37;63.54
5651;BME280;40241;52.684;9.758;2023-02-11T03:57:30;102688.03;;;9.33;63.59
5651;BME280;40241;52.684;9.758;2023-02-11T03:59:58;102683.31;;;9.34;63.63
5651;BME280;40241;52.684;9.758;2023-02-11T04:02:28;102682.13;;;9.35;63.69
5651;BME280;40241;52.684;9.758;2023-02-11T04:04:54;102679.38;;;9.35;63.75
5651;BME280;40241;52.684;9.758;2023-02-11T04:07:20;102679.25;;;9.38;63.71
5651;BME280;40241;52.684;9.758;2023-02-11T04:09:45;102676.84;;;9.40;63.68
5651;BME280;40241;52.684;9.758;2023-02-11T04:12:10;102671.34;;;9.40;63.64
5651;BME280;40241;52.684;9.758;2023-02-11T04:14:36;102676.41;;;9.42;63.73
5651;BME280;40241;52.684;9.758;2023-02-11T04:17:02;102679.47;;;9.44;63.67
5651;BME280;40241;52.684;9.758;2023-02-11T04:19:27;102666.53;;;9.44;63.68
5651;BME280;40241;52.684;9.758;2023-02-11T04:21:53;102659.84;;;9.45;63.75
5651;BME280;40241;52.684;9.758;2023-02-11T04:24:18;102656.31;;;9.45;63.83
5651;BME280;40241;52.684;9.758;2023-02-11T04:26:44;102663.78;;;9.44;63.79
5651;BME280;40241;52.684;9.758;2023-02-11T04:29:09;102664.88;;;9.47;63.63
5651;BME280;40241;52.684;9.758;2023-02-11T04:31:34;102670.72;;;9.49;63.75
5651;BME280;40241;52.684;9.758;2023-02-11T04:34:00;102672.59;;;9.52;63.62
5651;BME280;40241;52.684;9.758;2023-02-11T04:36:25;102670.19;;;9.54;63.71
5651;BME280;40241;52.684;9.758;2023-02-11T04:38:51;102683.47;;;9.55;63.74
5651;BME280;40241;52.684;9.758;2023-02-11T04:41:16;102673.72;;;9.54;63.76
5651;BME280;40241;52.684;9.758;2023-02-11T04:43:41;102676.03;;;9.56;63.71
5651;BME280;40241;52.684;9.758;2023-02-11T04:46:06;102671.72;;;9.55;63.86
5651;BME280;40241;52.684;9.758;2023-02-11T04:48:32;102674.78;;;9.57;63.86
5651;BME280;40241;52.684;9.758;2023-02-11T04:50:59;102673.59;;;9.58;63.84
5651;BME280;40241;52.684;9.758;2023-02-11T04:53:24;102666.88;;;9.59;63.85
5651;BME280;40241;52.684;9.758;2023-02-11T04:55:50;102671.19;;;9.60;63.86
5651;BME280;40241;52.684;9.758;2023-02-11T04:58:16;102669.53;;;9.62;63.80
5651;BME280;40241;52.684;9.758;2023-02-11T05:00:42;102658.09;;;9.64;63.80
5651;BME280;40241;52.684;9.758;2023-02-11T05:03:07;102660.84;;;9.64;63.80
5651;BME280;40241;52.684;9.758;2023-02-11T05:05:33;102670.22;;;9.66;63.86
5651;BME280;40241;52.684;9.758;2023-02-11T05:07:58;102671.84;;;9.64;63.79
5651;BME280;40241;52.684;9.758;2023-02-11T05:10:23;102688.66;;;9.66;63.85
5651;BME280;40241;52.684;9.758;2023-02-11T05:12:49;102690.66;;;9.65;63.93
5651;BME280;40241;52.684;9.758;2023-02-11T05:15:14;102680.00;;;9.67;63.97
5651;BME280;40241;52.684;9.758;2023-02-11T05:17:40;102687.03;;;9.68;63.85
5651;BME280;40241;52.684;9.758;2023-02-11T05:20:05;102676.03;;;9.68;64.01
5651;BME280;40241;52.684;9.758;2023-02-11T05:22:31;102671.75;;;9.67;64.18
5651;BME280;40241;52.684;9.758;2023-02-11T05:24:56;102669.75;;;9.68;63.99
5651;BME280;40241;52.684;9.758;2023-02-11T05:27:22;102663.53;;;9.67;63.96
5651;BME280;40241;52.684;9.758;2023-02-11T05:29:47;102663.84;;;9.69;63.95
5651;BME280;40241;52.684;9.758;2023-02-11T05:32:12;102667.34;;;9.70;64.13
5651;BME280;40241;52.684;9.758;2023-02-11T05:34:38;102663.41;;;9.71;63.93
5651;BME280;40241;52.684;9.758;2023-02-11T05:37:03;102668.91;;;9.71;63.99
5651;BME280;40241;52.684;9.758;2023-02-11T05:39:29;102662.53;;;9.74;63.92
5651;BME280;40241;52.684;9.758;2023-02-11T05:41:54;102658.56;;;9.75;63.99
5651;BME280;40241;52.684;9.758;2023-02-11T05:44:20;102657.03;;;9.74;63.94
5651;BME280;40241;52.684;9.758;2023-02-11T05:46:45;102654.63;;;9.76;64.00
5651;BME280;40241;52.684;9.758;2023-02-11T05:49:10;102662.44;;;9.77;63.99
5651;BME280;40241;52.684;9.758;2023-02-11T05:51:36;102656.16;;;9.77;64.04
5651;BME280;40241;52.684;9.758;2023-02-11T05:54:01;102658.91;;;9.77;64.03
5651;BME280;40241;52.684;9.758;2023-02-11T05:56:26;102659.69;;;9.77;63.95
5651;BME280;40241;52.684;9.758;2023-02-11T05:58:52;102660.13;;;9.76;64.08
5651;BME280;40241;52.684;9.758;2023-02-11T06:01:17;102665.63;;;9.76;64.16
5651;BME280;40241;52.684;9.758;2023-02-11T06:03:42;102659.22;;;9.79;64.08
5651;BME280;40241;52.684;9.758;2023-02-11T06:06:10;102656.47;;;9.79;64.03
5651;BME280;40241;52.684;9.758;2023-02-11T06:08:35;102666.38;;;9.76;64.17
5651;BME280;40241;52.684;9.758;2023-02-11T06:11:01;102665.97;;;9.78;64.15
5651;BME280;40241;52.684;9.758;2023-02-11T06:13:26;102658.44;;;9.78;64.17
5651;BME280;40241;52.684;9.758;2023-02-11T06:15:57;102661.19;;;9.78;64.19
5651;BME280;40241;52.684;9.758;2023-02-11T06:18:22;102662.31;;;9.81;64.10
5651;BME280;40241;52.684;9.758;2023-02-11T06:20:47;102655.63;;;9.82;64.09
5651;BME280;40241;52.684;9.758;2023-02-11T06:23:13;102661.44;;;9.84;63.95
5651;BME280;40241;52.684;9.758;2023-02-11T06:25:38;102665.72;;;9.85;64.08
5651;BME280;40241;52.684;9.758;2023-02-11T06:28:03;102662.97;;;9.85;64.04
5651;BME280;40241;52.684;9.758;2023-02-11T06:30:29;102665.72;;;9.85;64.17
5651;BME280;40241;52.684;9.758;2023-02-11T06:32:54;102663.34;;;9.87;64.23
5651;BME280;40241;52.684;9.758;2023-02-11T06:35:20;102667.59;;;9.88;64.07
5651;BME280;40241;52.684;9.758;2023-02-11T06:37:45;102668.84;;;9.87;64.08
5651;BME280;40241;52.684;9.758;2023-02-11T06:40:12;102670.03;;;9.86;64.21
5651;BME280;40241;52.684;9.758;2023-02-11T06:42:37;102675.06;;;9.88;64.21
5651;BME280;40241;52.684;9.758;2023-02-11T06:45:07;102685.66;;;9.89;64.16
5651;BME280;40241;52.684;9.758;2023-02-11T06:47:33;102683.66;;;9.90;64.13
5651;BME280;40241;52.684;9.758;2023-02-11T06:49:59;102676.19;;;9.90;64.22
5651;BME280;40241;52.684;9.758;2023-02-11T06:52:24;102684.75;;;9.92;64.15
5651;BME280;40241;52.684;9.758;2023-02-11T06:54:50;102681.16;;;9.95;64.17
5651;BME280;40241;52.684;9.758;2023-02-11T06:57:15;102688.16;;;9.96;64.08
5651;BME280;40241;52.684;9.758;2023-02-11T06:59:40;102689.41;;;9.95;64.20
5651;BME280;40241;52.684;9.758;2023-02-11T07:02:08;102681.03;;;9.99;64.05
5651;BME280;40241;52.684;9.758;2023-02-11T07:04:34;102685.88;;;9.95;64.32
5651;BME280;40241;52.684;9.758;2023-02-11T07:06:59;102669.81;;;9.93;64.27
5651;BME280;40241;52.684;9.758;2023-02-11T07:09:25;102671.69;;;9.96;64.19
5651;BME280;40241;52.684;9.758;2023-02-11T07:11:50;102662.22;;;9.97;64.25
5651;BME280;40241;52.684;9.758;2023-02-11T07:14:16;102664.53;;;9.99;64.34
5651;BME280;40241;52.684;9.758;2023-02-11T07:16:41;102665.31;;;9.99;64.28
5651;BME280;40241;52.684;9.758;2023-02-11T07:19:07;102663.00;;;9.98;64.29
5651;BME280;40241;52.684;9.758;2023-02-11T07:21:32;102663.34;;;10.00;64.33
5651;BME280;40241;52.684;9.758;2023-02-11T07:23:58;102670.47;;;9.97;64.44
5651;BME280;40241;52.684;9.758;2023-02-11T07:26:23;102670.38;;;10.01;64.46
5651;BME280;40241;52.684;9.758;2023-02-11T07:28:50;102663.53;;;10.05;64.44
5651;BME280;40241;52.684;9.758;2023-02-11T07:31:19;102678.06;;;10.06;64.35
5651;BME280;40241;52.684;9.758;2023-02-11T07:33:45;102676.53;;;10.05;64.42
5651;BME280;40241;52.684;9.758;2023-02-11T07:36:12;102673.34;;;10.06;64.38
5651;BME280;40241;52.684;9.758;2023-02-11T07:38:38;102677.28;;;10.05;64.52
5651;BME280;40241;52.684;9.758;2023-02-11T07:41:09;102684.78;;;10.05;64.63
5651;BME280;40241;52.684;9.758;2023-02-11T07:43:36;102684.34;;;10.06;64.56
5651;BME280;40241;52.684;9.758;2023-02-11T07:46:06;102689.94;;;10.03;64.71
5651;BME280;40241;52.684;9.758;2023-02-11T07:48:32;102682.47;;;10.03;64.85
5651;BME280;40241;52.684;9.758;2023-02-11T07:51:11;102682.81;;;10.05;64.92
5651;BME280;40241;52.684;9.758;2023-02-11T07:53:37;102693.03;;;10.05;64.88
5651;BME280;40241;52.684;9.758;2023-02-11T07:56:03;102692.16;;;10.08;64.73
5651;BME280;40241;52.684;9.758;2023-02-11T07:58:29;102692.94;;;10.08;64.83
5651;BME280;40241;52.684;9.758;2023-02-11T08:01:00;102694.13;;;10.07;65.06
5651;BME280;40241;52.684;9.758;2023-02-11T08:03:25;102681.16;;;10.08;64.94
5651;BME280;40241;52.684;9.758;2023-02-11T08:05:50;102686.66;;;10.08;64.98
5651;BME280;40241;52.684;9.758;2023-02-11T08:08:16;102692.06;;;10.11;65.01
5651;BME280;40241;52.684;9.758;2023-02-11T08:10:41;102692.44;;;10.13;65.00
5651;BME280;40241;52.684;9.758;2023-02-11T08:13:06;102701.75;;;10.16;65.03
5651;BME280;40241;52.684;9.758;2023-02-11T08:15:32;102712.34;;;10.17;64.97
5651;BME280;40241;52.684;9.758;2023-02-11T08:17:57;102731.59;;;10.17;65.01
5651;BME280;40241;52.684;9.758;2023-02-11T08:20:22;102708.69;;;10.20;64.97
5651;BME280;40241;52.684;9.758;2023-02-11T08:22:48;102714.53;;;10.22;64.92
5651;BME280;40241;52.684;9.758;2023-02-11T08:25:13;102725.19;;;10.20;65.02
5651;BME280;40241;52.684;9.758;2023-02-11T08:27:38;102727.94;;;10.20;65.05
5651;BME280;40241;52.684;9.758;2023-02-11T08:30:04;102735.34;;;10.23;64.99
5651;BME280;40241;52.684;9.758;2023-02-11T08:32:29;102739.53;;;10.28;65.28
5651;BME280;40241;52.684;9.758;2023-02-11T08:34:55;102755.25;;;10.27;64.83
5651;BME280;40241;52.684;9.758;2023-02-11T08:37:20;102746.53;;;10.29;64.93
5651;BME280;40241;52.684;9.758;2023-02-11T08:39:47;102735.13;;;10.30;65.11
5651;BME280;40241;52.684;9.758;2023-02-11T08:42:13;102732.78;;;10.29;65.30
5651;BME280;40241;52.684;9.758;2023-02-11T08:44:40;102736.31;;;10.29;64.99
5651;BME280;40241;52.684;9.758;2023-02-11T08:47:05;102728.06;;;10.29;65.29
5651;BME280;40241;52.684;9.758;2023-02-11T08:49:30;102733.56;;;10.29;65.29
5651;BME280;40241;52.684;9.758;2023-02-11T08:51:58;102729.28;;;10.28;65.29
5651;BME280;40241;52.684;9.758;2023-02-11T08:54:28;102739.84;;;10.30;65.22
5651;BME280;40241;52.684;9.758;2023-02-11T08:56:54;102740.19;;;10.32;65.38
5651;BME280;40241;52.684;9.758;2023-02-11T08:59:20;102749.53;;;10.34;65.23
5651;BME280;40241;52.684;9.758;2023-02-11T09:01:45;102751.19;;;10.32;65.30
5651;BME280;40241;52.684;9.758;2023-02-11T09:04:12;102750.31;;;10.35;65.28
5651;BME280;40241;52.684;9.758;2023-02-11T09:06:37;102759.69;;;10.37;65.45
5651;BME280;40241;52.684;9.758;2023-02-11T09:09:03;102749.41;;;10.38;65.36
5651;BME280;40241;52.684;9.758;2023-02-11T09:11:32;102742.28;;;10.40;65.31
5651;BME280;40241;52.684;9.758;2023-02-11T09:13:58;102751.75;;;10.39;65.38
5651;BME280;40241;52.684;9.758;2023-02-11T09:16:26;102767.81;;;10.41;65.43
5651;BME280;40241;52.684;9.758;2023-02-11T09:18:54;102759.56;;;10.41;65.69
5651;BME280;40241;52.684;9.758;2023-02-11T09:21:20;102759.13;;;10.42;65.46
5651;BME280;40241;52.684;9.758;2023-02-11T09:23:46;102762.53;;;10.46;65.56
5651;BME280;40241;52.684;9.758;2023-02-11T09:26:24;102767.16;;;10.49;65.77
5651;BME280;40241;52.684;9.758;2023-02-11T09:28:50;102775.75;;;10.51;65.50
5651;BME280;40241;52.684;9.758;2023-02-11T09:31:18;102770.88;;;10.55;65.66
5651;BME280;40241;52.684;9.758;2023-02-11T09:33:46;102776.72;;;10.57;65.50
5651;BME280;40241;52.684;9.758;2023-02-11T09:36:14;102772.22;;;10.64;65.68
5651;BME280;40241;52.684;9.758;2023-02-11T09:38:40;102778.06;;;10.66;65.62
5651;BME280;40241;52.684;9.758;2023-02-11T09:42:05;102788.84;;;10.73;65.70
5651;BME280;40241;52.684;9.758;2023-02-11T09:44:05;102780.91;;;10.75;65.50
5651;BME280;40241;52.684;9.758;2023-02-11T09:46:39;102786.00;;;10.76;65.69
5651;BME280;40241;52.684;9.758;2023-02-11T09:49:06;102800.19;;;10.75;65.65
5651;BME280;40241;52.684;9.758;2023-02-11T09:51:43;102799.44;;;10.74;65.78
5651;BME280;40241;52.684;9.758;2023-02-11T09:54:20;102799.63;;;10.80;65.78
5651;BME280;40241;52.684;9.758;2023-02-11T09:56:47;102795.22;;;10.82;65.48
5651;BME280;40241;52.684;9.758;2023-02-11T09:59:14;102796.00;;;10.83;65.53
5651;BME280;40241;52.684;9.758;2023-02-11T10:01:50;102794.78;;;10.84;66.12
5651;BME280;40241;52.684;9.758;2023-02-11T10:15:41;102815.16;;;10.86;65.66
5651;BME280;40241;52.684;9.758;2023-02-11T10:23:14;102819.34;;;10.91;65.69
5651;BME280;40241;52.684;9.758;2023-02-11T10:25:46;102821.66;;;10.92;65.64
5651;BME280;40241;52.684;9.758;2023-02-11T10:28:16;102822.56;;;10.89;65.62
5651;BME280;40241;52.684;9.758;2023-02-11T10:30:55;102832.78;;;10.89;65.92
5651;BME280;40241;52.684;9.758;2023-02-11T10:33:25;102833.13;;;10.91;65.73
5651;BME280;40241;52.684;9.758;2023-02-11T10:35:52;102834.34;;;10.90;65.74
5651;BME280;40241;52.684;9.758;2023-02-11T10:38:17;102835.88;;;10.91;65.84
5651;BME280;40241;52.684;9.758;2023-02-11T10:40:43;102840.06;;;10.95;65.68
5651;BME280;40241;52.684;9.758;2023-02-11T10:43:21;102833.34;;;10.96;65.79
5651;BME280;40241;52.684;9.758;2023-02-11T10:45:49;102846.34;;;10.96;65.81
5651;BME280;40241;52.684;9.758;2023-02-11T10:53:45;102850.22;;;10.98;65.80
5651;BME280;40241;52.684;9.758;2023-02-11T10:56:20;102847.78;;;11.00;66.16
5651;BME280;40241;52.684;9.758;2023-02-11T10:59:00;102850.09;;;11.02;66.19
5651;BME280;40241;52.684;9.758;2023-02-11T11:04:04;102846.47;;;11.05;65.93
5651;BME280;40241;52.684;9.758;2023-02-11T11:06:31;102837.63;;;11.10;65.94
5651;BME280;40241;52.684;9.758;2023-02-11T11:08:57;102847.88;;;11.09;66.04
5651;BME280;40241;52.684;9.758;2023-02-11T11:11:24;102862.00;;;11.11;65.96
5651;BME280;40241;52.684;9.758;2023-02-11T11:16:29;102838.63;;;11.16;66.03
5651;BME280;40241;52.684;9.758;2023-02-11T11:21:45;102839.81;;;11.15;66.33
5651;BME280;40241;52.684;9.758;2023-02-11T11:24:38;102830.44;;;11.12;66.13
5651;BME280;40241;52.684;9.758;2023-02-11T11:27:05;102835.50;;;11.14;66.09
5651;BME280;40241;52.684;9.758;2023-02-11T11:29:44;102831.88;;;11.17;66.09
5651;BME280;40241;52.684;9.758;2023-02-11T11:32:25;102841.38;;;11.16;66.18
5651;BME280;40241;52.684;9.758;2023-02-11T11:34:57;102834.19;;;11.18;66.06
5651;BME280;40241;52.684;9.758;2023-02-11T11:37:29;102836.53;;;11.20;66.11
5651;BME280;40241;52.684;9.758;2023-02-11T11:39:59;102833.19;;;11.25;66.21
5651;BME280;40241;52.684;9.758;2023-02-11T11:45:00;102835.84;;;11.28;66.39
5651;BME280;40241;52.684;9.758;2023-02-11T11:47:39;102841.34;;;11.28;66.46
5651;BME280;40241;52.684;9.758;2023-02-11T11:53:08;102830.44;;;11.25;66.41
5651;BME280;40241;52.684;9.758;2023-02-11T11:55:41;102835.38;;;11.30;66.32
5651;BME280;40241;52.684;9.758;2023-02-11T11:58:16;102841.69;;;11.30;66.46
5651;BME280;40241;52.684;9.758;2023-02-11T12:00:57;102841.34;;;11.28;66.36
5651;BME280;40241;52.684;9.758;2023-02-11T12:03:39;102834.41;;;11.24;66.28
5651;BME280;40241;52.684;9.758;2023-02-11T12:06:44;102832.31;;;11.28;66.72
5651;BME280;40241;52.684;9.758;2023-02-11T12:09:17;102840.25;;;11.26;66.34
5651;BME280;40241;52.684;9.758;2023-02-11T12:22:42;102838.91;;;11.30;66.58
5651;BME280;40241;52.684;9.758;2023-02-11T12:25:24;102831.09;;;11.29;66.55
5651;BME280;40241;52.684;9.758;2023-02-11T12:28:06;102833.88;;;11.29;66.87
5651;BME280;40241;52.684;9.758;2023-02-11T12:42:22;102841.31;;;11.41;67.25
5651;BME280;40241;52.684;9.758;2023-02-11T12:54:36;102836.59;;;11.42;66.73
5651;BME280;40241;52.684;9.758;2023-02-11T12:56:45;102839.00;;;11.40;66.97
5651;BME280;40241;52.684;9.758;2023-02-11T13:04:59;102837.13;;;11.37;66.86
5651;BME280;40241;52.684;9.758;2023-02-11T13:07:38;102847.38;;;11.36;67.04
5651;BME280;40241;52.684;9.758;2023-02-11T13:10:27;102831.16;;;11.38;67.08
5651;BME280;40241;52.684;9.758;2023-02-11T13:12:54;102834.69;;;11.39;66.76
5651;BME280;40241;52.684;9.758;2023-02-11T13:15:41;102841.19;;;11.45;66.70
5651;BME280;40241;52.684;9.758;2023-02-11T13:18:21;102843.53;;;11.46;67.10
5651;BME280;40241;52.684;9.758;2023-02-11T13:20:55;102838.31;;;11.48;66.88
5651;BME280;40241;52.684;9.758;2023-02-11T13:23:27;102832.81;;;11.48;66.70
5651;BME280;40241;52.684;9.758;2023-02-11T13:26:06;102839.44;;;11.51;66.95
5651;BME280;40241;52.684;9.758;2023-02-11T13:29:13;102834.78;;;11.48;67.67
5651;BME280;40241;52.684;9.758;2023-02-11T13:31:40;102838.00;;;11.46;66.68
5651;BME280;40241;52.684;9.758;2023-02-11T13:37:24;102842.41;;;11.44;66.84
5651;BME280;40241;52.684;9.758;2023-02-11T13:42:28;102850.31;;;11.54;66.91
5651;BME280;40241;52.684;9.758;2023-02-11T13:44:55;102843.94;;;11.57;66.86
5651;BME280;40241;52.684;9.758;2023-02-11T13:47:27;102841.38;;;11.63;67.13
5651;BME280;40241;52.684;9.758;2023-02-11T13:49:55;102840.59;;;11.62;66.68
5651;BME280;40241;52.684;9.758;2023-02-11T13:52:24;102836.31;;;11.61;66.76
5651;BME280;40241;52.684;9.758;2023-02-11T13:54:53;102836.75;;;11.60;66.75
5651;BME280;40241;52.684;9.758;2023-02-11T13:59:47;102858.38;;;11.61;66.88
5651;BME280;40241;52.684;9.758;2023-02-11T14:14:00;102878.44;;;11.62;67.17
5651;BME280;40241;52.684;9.758;2023-02-11T14:16:26;102886.72;;;11.62;66.77
5651;BME280;40241;52.684;9.758;2023-02-11T14:29:19;102876.75;;;11.64;67.01
5651;BME280;40241;52.684;9.758;2023-02-11T14:32:04;102873.25;;;11.64;67.23
5651;BME280;40241;52.684;9.758;2023-02-11T14:35:04;102876.00;;;11.64;67.27
5651;BME280;40241;52.684;9.758;2023-02-11T14:37:44;102880.28;;;11.65;67.58
5651;BME280;40241;52.684;9.758;2023-02-11T14:42:50;102886.94;;;11.67;67.27
5651;BME280;40241;52.684;9.758;2023-02-11T14:45:20;102883.72;;;11.69;67.03
5651;BME280;40241;52.684;9.758;2023-02-11T14:48:13;102886.06;;;11.70;67.25
5651;BME280;40241;52.684;9.758;2023-02-11T14:50:40;102882.28;;;11.64;67.19
5651;BME280;40241;52.684;9.758;2023-02-11T14:53:14;102891.56;;;11.70;67.38
5651;BME280;40241;52.684;9.758;2023-02-11T14:55:41;102902.28;;;11.68;67.33
5651;BME280;40241;52.684;9.758;2023-02-11T14:58:19;102888.03;;;11.70;67.63
5651;BME280;40241;52.684;9.758;2023-02-11T15:00:49;102901.38;;;11.71;67.24
5651;BME280;40241;52.684;9.758;2023-02-11T15:08:29;102911.75;;;11.67;67.52
5651;BME280;40241;52.684;9.758;2023-02-11T15:10:56;102910.56;;;11.68;67.33
5651;BME280;40241;52.684;9.758;2023-02-11T15:13:24;102915.28;;;11.68;67.53
5651;BME280;40241;52.684;9.758;2023-02-11T15:15:54;102909.00;;;11.67;67.59
5651;BME280;40241;52.684;9.758;2023-02-11T15:18:24;102921.22;;;11.66;67.54
5651;BME280;40241;52.684;9.758;2023-02-11T15:20:53;102924.75;;;11.67;67.60
5651;BME280;40241;52.684;9.758;2023-02-11T15:23:24;102927.09;;;11.68;67.57
5651;BME280;40241;52.684;9.758;2023-02-11T15:25:51;102937.34;;;11.68;67.61
5651;BME280;40241;52.684;9.758;2023-02-11T15:28:28;102935.38;;;11.68;67.68
5651;BME280;40241;52.684;9.758;2023-02-11T15:31:10;102936.91;;;11.69;67.57
5651;BME280;40241;52.684;9.758;2023-02-11T15:33:37;102938.88;;;11.69;67.54
5651;BME280;40241;52.684;9.758;2023-02-11T15:36:03;102927.09;;;11.68;67.71
5651;BME280;40241;52.684;9.758;2023-02-11T15:38:29;102941.63;;;11.69;67.81